Humboldt Bay — A8OL4 — position and weather

sailwx.info

Track history (hours):
 
Tides and Currents Weather Stations Pressure Air Temp Water Temp Dewpoint Dewpoint Depression Visibility Wind Speed Wind Dir Waves Ship Positions

Humboldt Bay

Last reported at 2014-Sep-01 09:33 UTC. Time now 2014-Sep-02 19:07 UTC.
Position N 27°11' W 119°36'.

Length 147 m; draft 6.4 m.

Type: Cargo ship. MMSI: 636013649.

Date/timePositionNaut miles runAvg speedWind from/ knotsBaromVisibWave heightAir tempDewpointWater temp
2014-Sep-01 09:33N 27°11' W 119°36'1716.7
2014-Sep-01 08:33N 27°22' W 119°50'1716.8
2014-Sep-01 07:32N 27°34' W 120°04'1616.5
2014-Sep-01 06:33N 27°45' W 120°18'2116.7
2014-Sep-01 05:17N 27°58' W 120°36'1216.8
2014-Sep-01 04:33N 28°07' W 120°47'1716.8
2014-Sep-01 03:33N 28°18' W 121°01'1716.9
2014-Sep-01 02:33N 28°29' W 121°15'1817.2
2014-Sep-01 01:31N 28°41' W 121°30'1617.0
2014-Sep-01 00:33N 28°52' W 121°44'1917.1
2014-Aug-31 23:27N 29°04' W 122°00'1617.1
2014-Aug-31 22:32N 29°15' W 122°13'1716.9
2014-Aug-31 21:33N 29°26' W 122°28'1716.9
2014-Aug-31 20:32N 29°36' W 122°44'1717.0
2014-Aug-31 19:32N 29°46' W 122°60'1717.0
2014-Aug-31 18:33N 29°57' W 123°15'1716.9
2014-Aug-31 17:33N 30°08' W 123°29'3517.1
2014-Aug-31 15:32N 30°30' W 124°01'1717.1
2014-Aug-31 14:33N 30°39' W 124°16'3417.0
2014-Aug-31 12:33N 30°59' W 124°48'1717.1
2014-Aug-31 11:33N 31°10' W 125°04'2117.2
2014-Aug-31 10:20N 31°22' W 125°24'1317.2
2014-Aug-31 09:33N 31°30' W 125°37'1717.2
2014-Aug-31 08:33N 31°40' W 125°53'1717.0
2014-Aug-31 07:33N 31°50' W 126°09'1716.9
2014-Aug-31 06:33N 31°60' W 126°25'1716.9
2014-Aug-31 05:33N 32°10' W 126°41'1717.0
2014-Aug-31 04:33N 32°20' W 126°58'1716.9
2014-Aug-31 03:33N 32°29' W 127°14'1716.9
2014-Aug-31 02:33N 32°39' W 127°30'1716.6
2014-Aug-31 01:33N 32°49' W 127°46'1716.6
2014-Aug-31 00:32N 32°59' W 128°02'2016.5
2014-Aug-30 23:19N 33°11' W 128°22'1516.5
2014-Aug-30 22:24N 33°20' W 128°36'1416.2
2014-Aug-30 21:30N 33°29' W 128°50'1516.0
2014-Aug-30 20:33N 33°38' W 129°04'1916.1
2014-Aug-30 19:23N 33°50' W 129°22'1516.0
2014-Aug-30 18:26N 33°60' W 129°36'1615.9
2014-Aug-30 17:28N 34°09' W 129°51'1415.7
2014-Aug-30 16:33N 34°17' W 130°05'1716.1
2014-Aug-30 15:29N 34°27' W 130°22'1516.0
2014-Aug-30 14:32N 34°36' W 130°37'1615.8
2014-Aug-30 13:33N 34°46' W 130°52'1615.6
2014-Aug-30 12:33N 34°55' W 131°07'1715.4
2014-Aug-30 11:27N 35°05' W 131°24'1615.3
2014-Aug-30 10:25N 35°15' W 131°39'1415.5
2014-Aug-30 09:33N 35°23' W 131°53'  
Track history (hours):
 
Tides and Currents Weather Stations Pressure Air Temp Water Temp Dewpoint Dewpoint Depression Visibility Wind Speed Wind Dir Waves Ship Positions

Humboldt Bay

Last reported at 2014-Sep-01 09:33 UTC. Time now 2014-Sep-02 19:07 UTC.
Position N 27°11' W 119°36'.

Length 147 m; draft 6.4 m.

Type: Cargo ship. MMSI: 636013649.

Date/timePositionNaut miles runAvg speedWind from/ knotsBaromVisibWave heightAir tempDewpointWater temp
2014-Sep-01 09:33N 27°11' W 119°36'1716.7
2014-Sep-01 08:33N 27°22' W 119°50'1716.8
2014-Sep-01 07:32N 27°34' W 120°04'1616.5
2014-Sep-01 06:33N 27°45' W 120°18'2116.7
2014-Sep-01 05:17N 27°58' W 120°36'1216.8
2014-Sep-01 04:33N 28°07' W 120°47'1716.8
2014-Sep-01 03:33N 28°18' W 121°01'1716.9
2014-Sep-01 02:33N 28°29' W 121°15'1817.2
2014-Sep-01 01:31N 28°41' W 121°30'1617.0
2014-Sep-01 00:33N 28°52' W 121°44'1917.1
2014-Aug-31 23:27N 29°04' W 122°00'1617.1
2014-Aug-31 22:32N 29°15' W 122°13'1716.9
2014-Aug-31 21:33N 29°26' W 122°28'1716.9
2014-Aug-31 20:32N 29°36' W 122°44'1717.0
2014-Aug-31 19:32N 29°46' W 122°60'1717.0
2014-Aug-31 18:33N 29°57' W 123°15'1716.9
2014-Aug-31 17:33N 30°08' W 123°29'3517.1
2014-Aug-31 15:32N 30°30' W 124°01'1717.1
2014-Aug-31 14:33N 30°39' W 124°16'3417.0
2014-Aug-31 12:33N 30°59' W 124°48'1717.1
2014-Aug-31 11:33N 31°10' W 125°04'2117.2
2014-Aug-31 10:20N 31°22' W 125°24'1317.2
2014-Aug-31 09:33N 31°30' W 125°37'1717.2
2014-Aug-31 08:33N 31°40' W 125°53'1717.0
2014-Aug-31 07:33N 31°50' W 126°09'1716.9
2014-Aug-31 06:33N 31°60' W 126°25'1716.9
2014-Aug-31 05:33N 32°10' W 126°41'1717.0
2014-Aug-31 04:33N 32°20' W 126°58'1716.9
2014-Aug-31 03:33N 32°29' W 127°14'1716.9
2014-Aug-31 02:33N 32°39' W 127°30'1716.6
2014-Aug-31 01:33N 32°49' W 127°46'1716.6
2014-Aug-31 00:32N 32°59' W 128°02'2016.5
2014-Aug-30 23:19N 33°11' W 128°22'1516.5
2014-Aug-30 22:24N 33°20' W 128°36'1416.2
2014-Aug-30 21:30N 33°29' W 128°50'1516.0
2014-Aug-30 20:33N 33°38' W 129°04'1916.1
2014-Aug-30 19:23N 33°50' W 129°22'1516.0
2014-Aug-30 18:26N 33°60' W 129°36'1615.9
2014-Aug-30 17:28N 34°09' W 129°51'1415.7
2014-Aug-30 16:33N 34°17' W 130°05'1716.1
2014-Aug-30 15:29N 34°27' W 130°22'1516.0
2014-Aug-30 14:32N 34°36' W 130°37'1615.8
2014-Aug-30 13:33N 34°46' W 130°52'1615.6
2014-Aug-30 12:33N 34°55' W 131°07'1715.4
2014-Aug-30 11:27N 35°05' W 131°24'1615.3
2014-Aug-30 10:25N 35°15' W 131°39'1415.5
2014-Aug-30 09:33N 35°23' W 131°53'  

Dump ship's entire track history